Grubbs, Arkansas
Current Conditions -  °F | °C
As of 5:26 AM on Thursday 18 Dec 2014 (Local Time) from KM19 Reporting Station
Light Rain Light Rain  
Wind Chill: 33°   Ceiling: 700
Heat Index: 37°   Visibility: 1mi
Dew Point: 36°   Wind: 6mph
Humidity: 93%   Direction: 80°E
Pressure: 30.24"   Gusts: NA
Location:  35.65°N, 91.07°W
Report Text: KM19 181126Z AUTO 08005KT 1SM -RA BR BKN007 OVC044 03/02 A3024 RMK AO2 CIG 005V009 P0001
Loading
Personal Weather Stations






























Interactive Weather Map New forecast layout! Learn more

10-Day Weather Forecast

Advertisements
Track Severe Weather on mobile